David Mcnemar — WDF4192 — position and weather

sailwx.info

Track history (hours):
 
Tides and Currents Weather Stations Pressure Air Temp Water Temp Dewpoint Dewpoint Depression Visibility Wind Speed Wind Dir Waves Ship Positions

David Mcnemar

Owner: Florida Marine Transporters, Inc., Mandeville, LA. More information available from US FCC via Universal Licensing System and Coast Guard Vessel Documentation Center.

Last reported at 2017-Oct-17 11:00 UTC. Time now 2017-Oct-17 11:27 UTC.
Position N 30°03' W 093°16'.

Length 27 m; draft 2.8 m.

Type: Towing. MMSI: 367449040.

Date/timePositionNaut miles runAvg speedWind from/ knotsBaromVisibWave heightAir tempDewpointWater temp
2017-Oct-17 11:00N 30°03' W 093°16'3 5.1
2017-Oct-17 10:30N 30°01' W 093°14'3 5.9
2017-Oct-17 10:00N 29°59' W 093°12'3 6.2
2017-Oct-17 09:30N 29°56' W 093°10'3 5.9
2017-Oct-17 08:58N 29°56' W 093°06'3 5.4
2017-Oct-17 08:24N 29°56' W 093°03'2 5.6
2017-Oct-17 07:58N 29°56' W 092°60'33 5.6
2017-Oct-17 02:03N 29°51' W 092°22'1 5.5
2017-Oct-17 01:53N 29°51' W 092°21'2 6.1
2017-Oct-17 01:31N 29°50' W 092°18'2 4.8
2017-Oct-17 01:01N 29°49' W 092°16'2 4.9
2017-Oct-17 00:30N 29°48' W 092°14'2 4.1
2017-Oct-17 00:00N 29°47' W 092°11'3 5.0
2017-Oct-16 23:31N 29°47' W 092°09'3 6.0
2017-Oct-16 23:01N 29°48' W 092°05'4 6.0
2017-Oct-16 22:21N 29°49' W 092°01'  
2017-Oct-14 16:10N 29°49' W 092°02'1 5.0
2017-Oct-14 16:00N 29°49' W 092°03'2 5.0
2017-Oct-14 15:30N 29°48' W 092°06'2 5.0
2017-Oct-14 15:00N 29°47' W 092°09'2 4.3
2017-Oct-14 14:31N 29°47' W 092°11'2 3.8
2017-Oct-14 14:01N 29°47' W 092°13'2 4.5
2017-Oct-14 13:30N 29°48' W 092°15'2 4.6
2017-Oct-14 13:00N 29°50' W 092°18'2 4.4
2017-Oct-14 12:30N 29°51' W 092°20'24 4.4
2017-Oct-14 07:05N 29°58' W 092°46'1 4.8
2017-Oct-14 06:54N 29°58' W 092°47'2 4.4
2017-Oct-14 06:28N 29°58' W 092°49'2 5.1
2017-Oct-14 06:00N 29°57' W 092°52'2 4.8
2017-Oct-14 05:30N 29°56' W 092°54'2 4.6
2017-Oct-14 05:00N 29°56' W 092°57'2 4.5
2017-Oct-14 04:30N 29°56' W 092°59'2 4.7
2017-Oct-14 04:01N 29°56' W 093°02'2 4.5
2017-Oct-14 03:28N 29°56' W 093°05'2 4.5
2017-Oct-14 03:00N 29°56' W 093°07'2 4.5
2017-Oct-14 02:30N 29°56' W 093°10'2 4.7
2017-Oct-14 02:00N 29°58' W 093°11'2 4.8
2017-Oct-14 01:30N 29°60' W 093°13'2 4.2
2017-Oct-14 01:01N 30°02' W 093°14'2 3.9
2017-Oct-14 00:30N 30°03' W 093°16'2 4.3
2017-Oct-14 00:00N 30°05' W 093°17'1 1.4
2017-Oct-13 23:31N 30°05' W 093°18'0 0.9
2017-Oct-13 23:01N 30°06' W 093°18'1 1.3
2017-Oct-13 22:30N 30°06' W 093°19'2 3.4
2017-Oct-13 22:01N 30°05' W 093°20'2 3.8
2017-Oct-13 21:31N 30°04' W 093°22'2 4.7
2017-Oct-13 21:00N 30°04' W 093°25'2 4.9
2017-Oct-13 20:31N 30°04' W 093°27'2 4.9
2017-Oct-13 20:00N 30°04' W 093°30'2 4.8
2017-Oct-13 19:31N 30°04' W 093°33'2 4.9
2017-Oct-13 19:00N 30°04' W 093°36'2 5.0
2017-Oct-13 18:30N 30°04' W 093°39'18 1.8
2017-Oct-13 08:28N 30°01' W 093°59'0 0.0
2017-Oct-13 07:59N 30°01' W 093°59'17 1.1
2017-Oct-12 16:04N 30°04' W 093°40'0 4.3
2017-Oct-12 15:59N 30°04' W 093°39'2 4.2
2017-Oct-12 15:30N 30°04' W 093°37'3 5.3
2017-Oct-12 14:57N 30°04' W 093°33'3 6.2
2017-Oct-12 14:30N 30°04' W 093°30'3 6.3
2017-Oct-12 14:00N 30°04' W 093°27'3 6.3
2017-Oct-12 13:30N 30°04' W 093°23'3 5.1
2017-Oct-12 13:00N 30°05' W 093°20'2 4.3
2017-Oct-12 12:31N 30°06' W 093°18'2 3.4
2017-Oct-12 12:00N 30°05' W 093°17'1 1.5
2017-Oct-12 11:30N 30°04' W 093°16'0 0.4
2017-Oct-12 11:01N 30°04' W 093°16'2 4.4
2017-Oct-12 10:30N 30°02' W 093°15'3 5.2
2017-Oct-12 10:01N 29°60' W 093°13'3 5.7
2017-Oct-12 09:30N 29°58' W 093°11'2 4.5
2017-Oct-12 09:00N 29°56' W 093°09'2 4.8
2017-Oct-12 08:30N 29°56' W 093°06'3 5.3
2017-Oct-12 08:00N 29°56' W 093°03'36 4.9
2017-Oct-12 00:34N 29°51' W 092°22'0 5.0
2017-Oct-12 00:29N 29°51' W 092°21'3 5.7
2017-Oct-12 00:01N 29°50' W 092°18'3 5.0
2017-Oct-11 23:30N 29°49' W 092°16'3 5.3
2017-Oct-11 23:00N 29°48' W 092°13'2 4.9
2017-Oct-11 22:31N 29°47' W 092°11'3 5.0
2017-Oct-11 22:01N 29°47' W 092°08'3 5.8
2017-Oct-11 21:31N 29°48' W 092°05'3 5.2
2017-Oct-11 20:53N 29°49' W 092°01'  
2017-Oct-09 09:52N 29°49' W 092°03'2 4.5
2017-Oct-09 09:30N 29°48' W 092°05'2 4.5
2017-Oct-09 09:01N 29°47' W 092°07'2 4.5
2017-Oct-09 08:31N 29°47' W 092°10'2 4.4
2017-Oct-09 08:01N 29°47' W 092°12'1 1.5
2017-Oct-09 07:30N 29°47' W 092°13'1 1.9
2017-Oct-09 07:00N 29°48' W 092°14'1 1.8
2017-Oct-09 06:31N 29°48' W 092°15'0 0.9
2017-Oct-09 06:01N 29°48' W 092°16'0 0.0
2017-Oct-09 05:31N 29°48' W 092°16'0 0.0
2017-Oct-09 05:01N 29°48' W 092°16'0 0.1
2017-Oct-09 04:31N 29°48' W 092°16'2 3.4
2017-Oct-09 04:00N 29°49' W 092°17'42 4.2
2017-Oct-08 18:02N 29°56' W 093°06'0 4.6
2017-Oct-08 18:00N 29°56' W 093°06'2 4.6
2017-Oct-08 17:30N 29°56' W 093°08'2 4.2
2017-Oct-08 17:00N 29°57' W 093°10'2 4.5
2017-Oct-08 16:31N 29°59' W 093°12'2 3.1
2017-Oct-08 16:00N 29°60' W 093°13'2 3.5
2017-Oct-08 15:31N 30°02' W 093°14'1 2.0
2017-Oct-08 15:01N 30°02' W 093°15'2 3.4
2017-Oct-08 14:30N 30°04' W 093°16'2 4.1
2017-Oct-08 14:00N 30°05' W 093°17'1 1.6
2017-Oct-08 13:31N 30°06' W 093°18'1 1.8
2017-Oct-08 13:01N 30°06' W 093°19'0 0.0
2017-Oct-08 12:31N 30°06' W 093°19'0 0.0
2017-Oct-08 12:01N 30°06' W 093°19'0 0.0
2017-Oct-08 11:31N 30°06' W 093°19'0 0.0
2017-Oct-08 11:01N 30°06' W 093°19'0 0.0
2017-Oct-08 10:31N 30°06' W 093°19'0 0.0
2017-Oct-08 10:01N 30°06' W 093°19'0 0.0
2017-Oct-08 09:30N 30°06' W 093°19'0 0.0
2017-Oct-08 09:01N 30°06' W 093°19'0 0.0
2017-Oct-08 08:30N 30°06' W 093°19'0 0.0
2017-Oct-08 08:01N 30°06' W 093°19'0 0.0
2017-Oct-08 07:30N 30°06' W 093°19'0 0.0
2017-Oct-08 07:01N 30°06' W 093°19'0 0.0
2017-Oct-08 06:31N 30°06' W 093°19'0 0.0
2017-Oct-08 06:00N 30°06' W 093°19'0 0.0
2017-Oct-08 05:31N 30°06' W 093°19'0 0.5
2017-Oct-08 05:01N 30°06' W 093°19'2 4.2
2017-Oct-08 04:31N 30°04' W 093°21'2 3.8
2017-Oct-08 04:01N 30°04' W 093°23'2 4.7
2017-Oct-08 03:31N 30°04' W 093°26'2 4.7
2017-Oct-08 03:01N 30°04' W 093°28'2 4.2
2017-Oct-08 02:31N 30°04' W 093°31'2 4.8
2017-Oct-08 02:01N 30°04' W 093°34'3 5.0
2017-Oct-08 01:31N 30°04' W 093°37'3 5.5
2017-Oct-08 01:00N 30°04' W 093°40'  
Track history (hours):
 
Tides and Currents Weather Stations Pressure Air Temp Water Temp Dewpoint Dewpoint Depression Visibility Wind Speed Wind Dir Waves Ship Positions

David Mcnemar

Owner: Florida Marine Transporters, Inc., Mandeville, LA. More information available from US FCC via Universal Licensing System and Coast Guard Vessel Documentation Center.

Last reported at 2017-Oct-17 11:00 UTC. Time now 2017-Oct-17 11:27 UTC.
Position N 30°03' W 093°16'.

Length 27 m; draft 2.8 m.

Type: Towing. MMSI: 367449040.

Date/timePositionNaut miles runAvg speedWind from/ knotsBaromVisibWave heightAir tempDewpointWater temp
2017-Oct-17 11:00N 30°03' W 093°16'3 5.1
2017-Oct-17 10:30N 30°01' W 093°14'3 5.9
2017-Oct-17 10:00N 29°59' W 093°12'3 6.2
2017-Oct-17 09:30N 29°56' W 093°10'3 5.9
2017-Oct-17 08:58N 29°56' W 093°06'3 5.4
2017-Oct-17 08:24N 29°56' W 093°03'2 5.6
2017-Oct-17 07:58N 29°56' W 092°60'33 5.6
2017-Oct-17 02:03N 29°51' W 092°22'1 5.5
2017-Oct-17 01:53N 29°51' W 092°21'2 6.1
2017-Oct-17 01:31N 29°50' W 092°18'2 4.8
2017-Oct-17 01:01N 29°49' W 092°16'2 4.9
2017-Oct-17 00:30N 29°48' W 092°14'2 4.1
2017-Oct-17 00:00N 29°47' W 092°11'3 5.0
2017-Oct-16 23:31N 29°47' W 092°09'3 6.0
2017-Oct-16 23:01N 29°48' W 092°05'4 6.0
2017-Oct-16 22:21N 29°49' W 092°01'  
2017-Oct-14 16:10N 29°49' W 092°02'1 5.0
2017-Oct-14 16:00N 29°49' W 092°03'2 5.0
2017-Oct-14 15:30N 29°48' W 092°06'2 5.0
2017-Oct-14 15:00N 29°47' W 092°09'2 4.3
2017-Oct-14 14:31N 29°47' W 092°11'2 3.8
2017-Oct-14 14:01N 29°47' W 092°13'2 4.5
2017-Oct-14 13:30N 29°48' W 092°15'2 4.6
2017-Oct-14 13:00N 29°50' W 092°18'2 4.4
2017-Oct-14 12:30N 29°51' W 092°20'24 4.4
2017-Oct-14 07:05N 29°58' W 092°46'1 4.8
2017-Oct-14 06:54N 29°58' W 092°47'2 4.4
2017-Oct-14 06:28N 29°58' W 092°49'2 5.1
2017-Oct-14 06:00N 29°57' W 092°52'2 4.8
2017-Oct-14 05:30N 29°56' W 092°54'2 4.6
2017-Oct-14 05:00N 29°56' W 092°57'2 4.5
2017-Oct-14 04:30N 29°56' W 092°59'2 4.7
2017-Oct-14 04:01N 29°56' W 093°02'2 4.5
2017-Oct-14 03:28N 29°56' W 093°05'2 4.5
2017-Oct-14 03:00N 29°56' W 093°07'2 4.5
2017-Oct-14 02:30N 29°56' W 093°10'2 4.7
2017-Oct-14 02:00N 29°58' W 093°11'2 4.8
2017-Oct-14 01:30N 29°60' W 093°13'2 4.2
2017-Oct-14 01:01N 30°02' W 093°14'2 3.9
2017-Oct-14 00:30N 30°03' W 093°16'2 4.3
2017-Oct-14 00:00N 30°05' W 093°17'1 1.4
2017-Oct-13 23:31N 30°05' W 093°18'0 0.9
2017-Oct-13 23:01N 30°06' W 093°18'1 1.3
2017-Oct-13 22:30N 30°06' W 093°19'2 3.4
2017-Oct-13 22:01N 30°05' W 093°20'2 3.8
2017-Oct-13 21:31N 30°04' W 093°22'2 4.7
2017-Oct-13 21:00N 30°04' W 093°25'2 4.9
2017-Oct-13 20:31N 30°04' W 093°27'2 4.9
2017-Oct-13 20:00N 30°04' W 093°30'2 4.8
2017-Oct-13 19:31N 30°04' W 093°33'2 4.9
2017-Oct-13 19:00N 30°04' W 093°36'2 5.0
2017-Oct-13 18:30N 30°04' W 093°39'18 1.8
2017-Oct-13 08:28N 30°01' W 093°59'0 0.0
2017-Oct-13 07:59N 30°01' W 093°59'17 1.1
2017-Oct-12 16:04N 30°04' W 093°40'0 4.3
2017-Oct-12 15:59N 30°04' W 093°39'2 4.2
2017-Oct-12 15:30N 30°04' W 093°37'3 5.3
2017-Oct-12 14:57N 30°04' W 093°33'3 6.2
2017-Oct-12 14:30N 30°04' W 093°30'3 6.3
2017-Oct-12 14:00N 30°04' W 093°27'3 6.3
2017-Oct-12 13:30N 30°04' W 093°23'3 5.1
2017-Oct-12 13:00N 30°05' W 093°20'2 4.3
2017-Oct-12 12:31N 30°06' W 093°18'2 3.4
2017-Oct-12 12:00N 30°05' W 093°17'1 1.5
2017-Oct-12 11:30N 30°04' W 093°16'0 0.4
2017-Oct-12 11:01N 30°04' W 093°16'2 4.4
2017-Oct-12 10:30N 30°02' W 093°15'3 5.2
2017-Oct-12 10:01N 29°60' W 093°13'3 5.7
2017-Oct-12 09:30N 29°58' W 093°11'2 4.5
2017-Oct-12 09:00N 29°56' W 093°09'2 4.8
2017-Oct-12 08:30N 29°56' W 093°06'3 5.3
2017-Oct-12 08:00N 29°56' W 093°03'36 4.9
2017-Oct-12 00:34N 29°51' W 092°22'0 5.0
2017-Oct-12 00:29N 29°51' W 092°21'3 5.7
2017-Oct-12 00:01N 29°50' W 092°18'3 5.0
2017-Oct-11 23:30N 29°49' W 092°16'3 5.3
2017-Oct-11 23:00N 29°48' W 092°13'2 4.9
2017-Oct-11 22:31N 29°47' W 092°11'3 5.0
2017-Oct-11 22:01N 29°47' W 092°08'3 5.8
2017-Oct-11 21:31N 29°48' W 092°05'3 5.2
2017-Oct-11 20:53N 29°49' W 092°01'  
2017-Oct-09 09:52N 29°49' W 092°03'2 4.5
2017-Oct-09 09:30N 29°48' W 092°05'2 4.5
2017-Oct-09 09:01N 29°47' W 092°07'2 4.5
2017-Oct-09 08:31N 29°47' W 092°10'2 4.4
2017-Oct-09 08:01N 29°47' W 092°12'1 1.5
2017-Oct-09 07:30N 29°47' W 092°13'1 1.9
2017-Oct-09 07:00N 29°48' W 092°14'1 1.8
2017-Oct-09 06:31N 29°48' W 092°15'0 0.9
2017-Oct-09 06:01N 29°48' W 092°16'0 0.0
2017-Oct-09 05:31N 29°48' W 092°16'0 0.0
2017-Oct-09 05:01N 29°48' W 092°16'0 0.1
2017-Oct-09 04:31N 29°48' W 092°16'2 3.4
2017-Oct-09 04:00N 29°49' W 092°17'42 4.2
2017-Oct-08 18:02N 29°56' W 093°06'0 4.6
2017-Oct-08 18:00N 29°56' W 093°06'2 4.6
2017-Oct-08 17:30N 29°56' W 093°08'2 4.2
2017-Oct-08 17:00N 29°57' W 093°10'2 4.5
2017-Oct-08 16:31N 29°59' W 093°12'2 3.1
2017-Oct-08 16:00N 29°60' W 093°13'2 3.5
2017-Oct-08 15:31N 30°02' W 093°14'1 2.0
2017-Oct-08 15:01N 30°02' W 093°15'2 3.4
2017-Oct-08 14:30N 30°04' W 093°16'2 4.1
2017-Oct-08 14:00N 30°05' W 093°17'1 1.6
2017-Oct-08 13:31N 30°06' W 093°18'1 1.8
2017-Oct-08 13:01N 30°06' W 093°19'0 0.0
2017-Oct-08 12:31N 30°06' W 093°19'0 0.0
2017-Oct-08 12:01N 30°06' W 093°19'0 0.0
2017-Oct-08 11:31N 30°06' W 093°19'0 0.0
2017-Oct-08 11:01N 30°06' W 093°19'0 0.0
2017-Oct-08 10:31N 30°06' W 093°19'0 0.0
2017-Oct-08 10:01N 30°06' W 093°19'0 0.0
2017-Oct-08 09:30N 30°06' W 093°19'0 0.0
2017-Oct-08 09:01N 30°06' W 093°19'0 0.0
2017-Oct-08 08:30N 30°06' W 093°19'0 0.0
2017-Oct-08 08:01N 30°06' W 093°19'0 0.0
2017-Oct-08 07:30N 30°06' W 093°19'0 0.0
2017-Oct-08 07:01N 30°06' W 093°19'0 0.0
2017-Oct-08 06:31N 30°06' W 093°19'0 0.0
2017-Oct-08 06:00N 30°06' W 093°19'0 0.0
2017-Oct-08 05:31N 30°06' W 093°19'0 0.5
2017-Oct-08 05:01N 30°06' W 093°19'2 4.2
2017-Oct-08 04:31N 30°04' W 093°21'2 3.8
2017-Oct-08 04:01N 30°04' W 093°23'2 4.7
2017-Oct-08 03:31N 30°04' W 093°26'2 4.7
2017-Oct-08 03:01N 30°04' W 093°28'2 4.2
2017-Oct-08 02:31N 30°04' W 093°31'2 4.8
2017-Oct-08 02:01N 30°04' W 093°34'3 5.0
2017-Oct-08 01:31N 30°04' W 093°37'3 5.5
2017-Oct-08 01:00N 30°04' W 093°40'  

Dump ship's entire track history